www.valleyair.org


AQI


CRPAQS
Fall 2000 Corcoran Nephelometer Network

Calendar | Network Description | Animation Description | Daily Statistics | Files | CRPAQS



Daily Statistics

Daily statistics for each site are show.
Count is the number of 5 minute observations during the specified 24 hour period.
Maximum possible daily count is 288.

DateSite bsp (Mn-1)Temperature (F)Relative Humidity (%)Count
   MinMaxAvg MinMaxAvg MinMaxAvg 
10/10/2000 BEL 4 72 17 14 19 16 62 69 67 288
10/10/2000 C05 3 36 15 15 20 16 53 68 65 283
10/10/2000 COP 5 57 17 14 20 16 57 73 69 288
10/10/2000 COPE 4 29 17 14 19 16 58 71 67 288
10/10/2000 COPN 4 28 15 13 20 16 55 85 74 288
10/10/2000 COPS 3 32 16 13 21 16 52 88 75 288
10/10/2000 COPW 3 29 15 12 20 16 55 85 72 288
10/10/2000 COV 2 124 16 14 19 16 57 69 67 287
10/10/2000 DAIP 3 29 15 14 19 16 51 69 66 288
10/10/2000 DAIU 6 28 16 16 24 20 39 60 51 288
10/10/2000 GRA 8 937 134 15 24 20 66 80 79 197
10/10/2000 GRAE 0
10/10/2000 GRAN 3 33 16 15 19 17 55 69 67 288
10/10/2000 GRAS 10 3664 189 13 18 15 66 86 77 124
10/10/2000 GRAW 4 43 16 15 20 17 57 69 66 288
10/10/2000 H43 4 29 13 14 19 17 61 70 66 288
10/10/2000 NIL 6 40 19 13 19 16 55 71 67 288
10/10/2000 ORE 0
10/10/2000 OTT 0
10/10/2000 SFE 8 40 20 14 19 16 58 70 67 288
10/10/2000 SHE 7 104 19 14 20 16 51 70 66 110
10/10/2000 SPE 0
10/10/2000 COD 5 30 15 14 21 18 53 76 57 288
DateSite bsp (Mn-1)Temperature (F)Relative Humidity (%)Count
   MinMaxAvg MinMaxAvg MinMaxAvg 
10/11/2000 BEL 9 46 21 14 21 17 42 68 63 286
10/11/2000 C05 7 61 20 14 21 17 41 68 60 288
10/11/2000 COP 9 234 22 14 21 17 41 72 65 288
10/11/2000 COPE 9 48 21 13 21 16 42 70 64 288
10/11/2000 COPN 7 45 19 14 23 17 39 72 64 288
10/11/2000 COPS 7 78 25 12 24 17 36 91 71 288
10/11/2000 COPW 7 78 18 14 24 18 36 73 63 288
10/11/2000 COV 7 42 18 14 21 17 40 69 63 288
10/11/2000 DAIP 14 38 22 13 16 14 60 69 67 109
10/11/2000 DAIU 9 46 23 15 26 20 30 64 51 286
10/11/2000 GRA 10 49 23 18 22 20 81 81 81 98
10/11/2000 GRAE 0
10/11/2000 GRAN 8 58 21 14 22 17 40 70 63 287
10/11/2000 GRAS 0
10/11/2000 GRAW 6 103 17 15 22 17 40 69 62 287
10/11/2000 H43 8 40 16 14 21 17 39 69 62 288
10/11/2000 NIL 9 51 24 13 20 16 44 70 65 285
10/11/2000 ORE 0
10/11/2000 OTT 0
10/11/2000 SFE 11 52 24 14 21 17 41 69 63 287
10/11/2000 SHE 8 64 20 14 22 17 37 70 62 288
10/11/2000 SPE 0
10/11/2000 COD 10 40 19 14 21 18 44 64 57 287
DateSite bsp (Mn-1)Temperature (F)Relative Humidity (%)Count
   MinMaxAvg MinMaxAvg MinMaxAvg 
10/12/2000 BEL 39 117 73 14 20 16 56 69 67 117
10/12/2000 C05 18 125 57 14 23 17 42 69 61 288
10/12/2000 COP 19 148 62 14 24 17 39 73 64 288
10/12/2000 COPE 21 122 65 14 24 17 38 70 63 286
10/12/2000 COPN 17 130 58 14 25 18 37 73 63 287
10/12/2000 COPS 17 308 86 12 25 17 33 94 70 286
10/12/2000 COPW 16 111 56 14 26 18 34 74 63 286
10/12/2000 COV 17 102 54 14 24 17 38 70 62 288
10/12/2000 DAIP 0
10/12/2000 DAIU 24 836 85 15 28 20 29 75 51 221
10/12/2000 GRA 15 137 48 16 27 21 80 81 81 288
10/12/2000 GRAE 0
10/12/2000 GRAN 19 120 61 14 24 17 40 70 62 288
10/12/2000 GRAS 0
10/12/2000 GRAW 15 93 48 14 24 18 39 70 61 288
10/12/2000 H43 30 97 64 14 21 16 59 69 68 119
10/12/2000 NIL 53 64 58 16 16 16 70 70 70 7
10/12/2000 ORE 0
10/12/2000 OTT 0
10/12/2000 SFE 18 105 63 14 22 17 40 70 60 288
10/12/2000 SHE 17 109 59 13 25 18 32 71 61 288
10/12/2000 SPE 0
10/12/2000 COD 19 165 67 12 24 17 49 92 71 288
DateSite bsp (Mn-1)Temperature (F)Relative Humidity (%)Count
   MinMaxAvg MinMaxAvg MinMaxAvg 
10/13/2000 BEL 0
10/13/2000 C05 44 179 106 10 27 17 28 70 58 288
10/13/2000 COP 2 330 110 11 25 17 34 73 60 288
10/13/2000 COPE 46 195 114 10 24 17 34 70 60 288
10/13/2000 COPN 41 539 106 11 26 18 32 73 60 288
10/13/2000 COPS 46 240 128 9 26 17 30 92 66 288
10/13/2000 COPW 45 308 102 11 26 18 32 74 59 288
10/13/2000 COV 41 175 99 11 25 17 33 70 58 287
10/13/2000 DAIP 69 185 131 13 24 18 36 68 55 55
10/13/2000 DAIU 0
10/13/2000 GRA 43 126 76 13 28 20 80 81 80 198
10/13/2000 GRAE 44 198 109 13 25 20 31 69 53 197
10/13/2000 GRAN 51 196 112 12 25 17 32 69 59 288
10/13/2000 GRAS 0
10/13/2000 GRAW 39 173 87 12 26 18 31 69 57 288
10/13/2000 H43 30 30 30 53 53 53 1
10/13/2000 NIL 0
10/13/2000 ORE 0
10/13/2000 OTT 86 216 136 14 20 16 49 71 67 80
10/13/2000 SFE 78 180 117 9 18 12 60 86 74 111
10/13/2000 SHE 43 187 104 10 26 18 28 71 57 288
10/13/2000 SPE 0
10/13/2000 COD 51 977 283 8 24 17 35 86 61 261
DateSite bsp (Mn-1)Temperature (F)Relative Humidity (%)Count
   MinMaxAvg MinMaxAvg MinMaxAvg 
10/14/2000 BEL 75 193 135 16 27 22 30 67 51 147
10/14/2000 C05 63 210 140 14 27 19 30 64 52 288
10/14/2000 COP 69 306 156 13 27 19 31 72 58 288
10/14/2000 COPE 79 228 164 12 27 18 32 69 58 288
10/14/2000 COPN 64 284 148 13 29 19 29 73 57 288
10/14/2000 COPS 63 327 180 10 28 19 28 91 62 288
10/14/2000 COPW 56 213 143 12 29 19 28 73 57 288
10/14/2000 COV 62 197 138 13 27 19 31 69 56 288
10/14/2000 DAIP 72 813 152 15 27 22 31 67 48 156
10/14/2000 DAIU 71 216 129 19 30 25 28 55 38 153
10/14/2000 GRA 0
10/14/2000 GRAE 57 200 145 12 28 19 30 69 56 288
10/14/2000 GRAN 70 244 161 13 28 19 30 70 57 288
10/14/2000 GRAS 0
10/14/2000 GRAW 55 206 126 13 28 19 29 69 55 288
10/14/2000 H43 64 225 145 15 28 22 27 67 51 134
10/14/2000 NIL 78 205 144 15 28 22 30 68 50 151
10/14/2000 ORE 0
10/14/2000 OTT 67 191 137 11 27 18 32 73 58 288
10/14/2000 SFE 100 228 155 15 27 21 28 67 50 133
10/14/2000 SHE 56 515 147 12 28 19 27 70 55 288
10/14/2000 SPE 0
10/14/2000 COD 69 188 139 14 27 20 33 62 51 288
DateSite bsp (Mn-1)Temperature (F)Relative Humidity (%)Count
   MinMaxAvg MinMaxAvg MinMaxAvg 
10/15/2000 BEL 148 330 244 14 28 20 33 68 57 288
10/15/2000 C05 146 308 227 13 28 20 30 68 55 288
10/15/2000 COP 153 800 267 13 28 19 32 73 60 288
10/15/2000 COPE 178 534 272 12 28 19 33 70 59 287
10/15/2000 COPN 140 885 259 13 30 20 31 72 58 288
10/15/2000 COPS 148 605 309 12 29 19 29 91 64 288
10/15/2000 COPW 135 606 254 13 29 20 30 73 59 288
10/15/2000 COV 141 365 233 13 28 19 33 69 58 288
10/15/2000 DAIP 154 510 274 13 27 19 32 69 57 288
10/15/2000 DAIU 152 316 229 15 31 23 28 62 46 288
10/15/2000 GRA 0
10/15/2000 GRAE 143 324 235 12 29 19 31 69 57 288
10/15/2000 GRAN 175 369 263 13 29 19 32 69 58 288
10/15/2000 GRAS 0
10/15/2000 GRAW 126 298 202 14 29 20 31 69 56 288
10/15/2000 H43 154 347 229 12 28 19 32 69 57 288
10/15/2000 NIL 163 366 253 12 28 19 32 70 58 288
10/15/2000 ORE 0
10/15/2000 OTT 140 526 240 13 28 19 32 74 60 288
10/15/2000 SFE 158 360 260 12 27 19 31 69 56 288
10/15/2000 SHE 142 548 254 13 29 20 29 71 57 288
10/15/2000 SPE 0
10/15/2000 COD 158 306 226 14 28 20 34 63 52 288
DateSite bsp (Mn-1)Temperature (F)Relative Humidity (%)Count
   MinMaxAvg MinMaxAvg MinMaxAvg 
10/16/2000 BEL 103 413 228 14 30 21 28 68 54 288
10/16/2000 C05 88 451 231 13 30 21 25 67 51 288
10/16/2000 COP 2 451 240 13 30 20 5 73 56 288
10/16/2000 COPE 116 468 257 12 30 20 28 69 56 288
10/16/2000 COPN 92 431 233 13 32 21 26 73 55 288
10/16/2000 COPS 92 672 295 12 31 20 25 89 61 288
10/16/2000 COPW 89 433 229 13 32 21 25 73 55 288
10/16/2000 COV 88 423 221 13 30 20 28 69 55 287
10/16/2000 DAIP 103 464 251 13 30 20 26 69 55 288
10/16/2000 DAIU 103 450 219 15 32 23 26 62 44 288
10/16/2000 GRA 84 275 143 21 35 29 81 81 81 159
10/16/2000 GRAE 91 481 246 12 30 20 26 69 54 288
10/16/2000 GRAN 106 450 262 13 31 20 27 69 55 288
10/16/2000 GRAS 99 421 176 17 30 25 28 67 45 184
10/16/2000 GRAW 84 383 201 13 31 21 26 69 53 287
10/16/2000 H43 81 438 227 12 30 21 26 69 53 288
10/16/2000 NIL 97 454 241 12 30 20 28 70 55 288
10/16/2000 ORE 0
10/16/2000 OTT 90 419 234 13 31 20 28 73 56 288
10/16/2000 SFE 110 746 268 12 29 20 26 69 53 288
10/16/2000 SHE 92 470 245 13 31 21 24 70 54 288
10/16/2000 SPE 0
10/16/2000 COD 40 371 211 14 30 21 29 73 50 288
DateSite bsp (Mn-1)Temperature (F)Relative Humidity (%)Count
   MinMaxAvg MinMaxAvg MinMaxAvg 
10/17/2000 BEL 112 323 227 15 31 22 27 67 53 288
10/17/2000 C05 104 340 200 15 31 22 26 65 49 288
10/17/2000 COP 113 445 231 14 31 22 28 73 54 288
10/17/2000 COPE 121 401 240 14 32 21 28 69 54 288
10/17/2000 COPN 110 466 223 15 33 22 27 72 54 288
10/17/2000 COPS 109 512 251 12 32 22 26 89 57 288
10/17/2000 COPW 105 755 218 14 32 22 26 73 53 288
10/17/2000 COV 100 341 204 14 32 22 27 69 53 288
10/17/2000 DAIP 148 349 238 14 29 17 27 69 60 154
10/17/2000 DAIU 126 413 229 16 34 23 26 83 49 288
10/17/2000 GRA 91 314 183 17 36 26 80 81 80 288
10/17/2000 GRAE 100 375 208 13 31 21 28 69 53 288
10/17/2000 GRAN 110 400 233 14 32 22 27 69 53 288
10/17/2000 GRAS 110 374 221 14 31 22 28 69 52 288
10/17/2000 GRAW 89 313 184 14 32 22 26 68 52 288
10/17/2000 H43 114 571 211 13 33 22 27 69 53 288
10/17/2000 NIL 128 430 241 14 31 21 27 70 54 288
10/17/2000 ORE 0
10/17/2000 OTT 106 350 212 14 31 21 30 73 55 288
10/17/2000 SFE 118 602 238 13 31 21 26 69 51 287
10/17/2000 SHE 103 368 221 14 32 22 26 70 52 288
10/17/2000 SPE 0
10/17/2000 COD 22 358 164 12 31 22 30 85 55 288
DateSite bsp (Mn-1)Temperature (F)Relative Humidity (%)Count
   MinMaxAvg MinMaxAvg MinMaxAvg 
10/18/2000 BEL 53 350 195 16 31 22 24 67 52 288
10/18/2000 C05 51 340 180 16 30 22 23 66 50 288
10/18/2000 COP 56 388 200 16 30 22 26 70 53 288
10/18/2000 COPE 61 408 211 16 29 21 27 68 54 288
10/18/2000 COPN 56 371 195 16 31 22 25 71 53 287
10/18/2000 COPS 54 403 207 15 32 22 23 79 54 288
10/18/2000 COPW 52 355 193 16 31 22 25 71 53 288
10/18/2000 COV 49 349 179 16 31 22 26 67 53 288
10/18/2000 DAIP 71 241 145 17 31 23 24 66 48 122
10/18/2000 DAIU 61 487 234 14 30 21 29 92 64 287
10/18/2000 GRA 49 300 164 21 34 26 80 80 80 288
10/18/2000 GRAE 53 383 188 17 31 22 25 67 52 288
10/18/2000 GRAN 55 396 206 17 30 22 25 68 53 288
10/18/2000 GRAS 58 366 196 17 30 22 26 67 52 288
10/18/2000 GRAW 45 295 158 16 32 23 23 67 51 288
10/18/2000 H43 49 535 189 16 31 22 24 68 51 288
10/18/2000 NIL 60 381 206 15 30 21 26 69 53 288
10/18/2000 ORE 0
10/18/2000 OTT 51 391 207 15 30 21 27 71 53 185
10/18/2000 SFE 64 357 208 16 29 21 25 67 51 288
10/18/2000 SHE 51 368 195 16 32 22 23 68 51 288
10/18/2000 SPE 48 190 114 16 29 23 26 66 47 147
10/18/2000 COD 22 356 146 17 30 22 28 73 48 288
DateSite bsp (Mn-1)Temperature (F)Relative Humidity (%)Count
   MinMaxAvg MinMaxAvg MinMaxAvg 
10/19/2000 BEL 54 441 188 13 30 21 28 67 53 288
10/19/2000 C05 57 387 161 15 31 21 24 65 48 288
10/19/2000 COP 58 457 182 13 30 21 28 70 53 288
10/19/2000 COPE 66 465 196 13 30 20 29 68 55 288
10/19/2000 COPN 57 467 183 13 31 21 27 70 54 288
10/19/2000 COPS 55 534 189 13 32 21 25 79 54 288
10/19/2000 COPW 54 460 179 13 32 21 26 70 53 288
10/19/2000 COV 49 412 167 13 31 21 27 67 53 288
10/19/2000 DAIP 60 507 192 13 31 20 27 67 53 288
10/19/2000 DAIU 69 591 214 12 30 20 32 92 63 287
10/19/2000 GRA 52 348 154 18 34 25 79 80 80 288
10/19/2000 GRAE 60 389 171 13 31 21 27 67 52 288
10/19/2000 GRAN 63 452 193 14 31 20 27 67 54 288
10/19/2000 GRAS 62 433 183 14 30 21 28 66 52 288
10/19/2000 GRAW 47 343 146 14 31 21 26 67 51 288
10/19/2000 H43 55 417 176 13 31 21 26 67 52 288
10/19/2000 NIL 63 480 197 13 30 20 28 68 54 288
10/19/2000 ORE 0
10/19/2000 OTT 0
10/19/2000 SFE 64 482 198 13 29 20 27 66 51 288
10/19/2000 SHE 53 439 178 13 32 21 24 68 51 288
10/19/2000 SPE 46 391 161 13 30 20 28 67 53 288
10/19/2000 COD 16 414 126 15 30 21 33 72 50 288
DateSite bsp (Mn-1)Temperature (F)Relative Humidity (%)Count
   MinMaxAvg MinMaxAvg MinMaxAvg 
10/20/2000 BEL 213 549 386 14 26 17 43 67 64 128
10/20/2000 C05 47 423 206 14 31 21 26 66 50 288
10/20/2000 COP 39 512 241 13 31 21 26 71 54 288
10/20/2000 COPE 42 553 262 13 30 20 28 69 55 286
10/20/2000 COPN 37 525 245 14 32 21 26 71 54 287
10/20/2000 COPS 174 620 347 13 33 21 24 84 59 183
10/20/2000 COPW 37 500 242 14 32 22 25 72 54 288
10/20/2000 COV 34 457 218 14 31 21 27 68 53 288
10/20/2000 DAIP 42 549 269 14 31 21 26 68 53 288
10/20/2000 DAIU 312 814 550 11 15 13 84 99 95 100
10/20/2000 GRA 163 6928 598 16 28 20 74 79 78 129
10/20/2000 GRAE 45 427 215 13 31 21 26 69 53 288
10/20/2000 GRAN 43 461 241 14 31 21 27 69 54 288
10/20/2000 GRAS 42 447 233 14 31 21 28 68 53 288
10/20/2000 GRAW 31 365 185 14 32 22 25 67 52 288
10/20/2000 H43 44 465 205 13 32 21 25 69 52 288
10/20/2000 NIL 42 553 271 13 31 21 27 70 54 288
10/20/2000 ORE 0
10/20/2000 OTT 39 210 117 19 28 21 30 70 57 89
10/20/2000 SFE 46 454 236 13 31 21 25 68 51 288
10/20/2000 SHE 39 522 250 13 33 21 24 69 53 288
10/20/2000 SPE 33 471 232 13 31 21 27 68 54 288
10/20/2000 COD 27 444 174 15 31 22 30 74 50 288
DateSite bsp (Mn-1)Temperature (F)Relative Humidity (%)Count
   MinMaxAvg MinMaxAvg MinMaxAvg 
10/21/2000 BEL 0
10/21/2000 C05 14 145 42 14 25 19 22 65 47 287
10/21/2000 COP 14 148 42 13 24 18 27 69 52 288
10/21/2000 COPE 18 162 49 12 23 18 27 67 53 288
10/21/2000 COPN 18 154 44 13 24 18 26 70 52 288
10/21/2000 COPS 0
10/21/2000 COPW 14 148 42 13 24 19 26 70 51 288
10/21/2000 COV 14 142 40 12 24 18 26 67 52 288
10/21/2000 DAIP 17 161 47 13 24 18 26 67 51 288
10/21/2000 DAIU 0
10/21/2000 GRA 15 145 49 13 28 21 28 81 59 171
10/21/2000 GRAE 15 146 43 13 24 18 26 67 52 287
10/21/2000 GRAN 17 162 48 13 24 18 26 67 52 288
10/21/2000 GRAS 16 161 50 14 24 19 27 67 52 288
10/21/2000 GRAW 12 126 37 13 25 19 25 67 51 287
10/21/2000 H43 15 142 45 14 24 19 25 67 51 288
10/21/2000 NIL 19 179 48 12 24 18 27 68 52 288
10/21/2000 ORE 0
10/21/2000 OTT 18 148 45 13 24 19 28 71 53 288
10/21/2000 SFE 19 278 57 14 23 18 26 66 51 288
10/21/2000 SHE 15 160 45 14 25 19 24 68 50 288
10/21/2000 SPE 13 131 39 13 23 18 27 67 51 288
10/21/2000 COD 6 63 26 13 24 19 30 58 49 287
DateSite bsp (Mn-1)Temperature (F)Relative Humidity (%)Count
   MinMaxAvg MinMaxAvg MinMaxAvg 
10/22/2000 BEL 30 111 57 11 25 19 24 66 45 158
10/22/2000 C05 11 164 39 9 25 16 24 64 47 288
10/22/2000 COP 13 140 43 8 25 16 25 69 51 288
10/22/2000 COPE 15 192 51 8 25 15 25 67 53 288
10/22/2000 COPN 13 135 45 8 26 16 24 70 51 288
10/22/2000 COPS 0
10/22/2000 COPW 12 118 42 9 26 16 23 69 50 288
10/22/2000 COV 11 141 41 9 24 16 24 67 51 288
10/22/2000 DAIP 14 106 44 8 25 15 23 67 50 288
10/22/2000 DAIU 26 92 52 10 25 18 23 69 43 170
10/22/2000 GRA 13 225 44 9 25 16 28 67 52 288
10/22/2000 GRAE 13 252 44 8 26 16 23 67 49 288
10/22/2000 GRAN 14 440 50 9 26 16 24 67 51 288
10/22/2000 GRAS 13 188 44 9 25 16 25 66 49 288
10/22/2000 GRAW 10 239 35 9 26 16 23 66 49 288
10/22/2000 H43 11 82 38 9 25 16 23 68 49 287
10/22/2000 NIL 17 271 49 8 25 15 25 68 51 288
10/22/2000 ORE 0
10/22/2000 OTT 14 104 43 9 25 16 26 70 51 288
10/22/2000 SFE 16 133 48 8 24 16 23 66 48 287
10/22/2000 SHE 12 103 42 9 26 16 22 67 49 288
10/22/2000 SPE 9 95 37 8 24 15 25 66 51 288
10/22/2000 COD 6 160 27 8 25 16 28 70 48 288
DateSite bsp (Mn-1)Temperature (F)Relative Humidity (%)Count
   MinMaxAvg MinMaxAvg MinMaxAvg 
10/23/2000 BEL 53 139 89 9 28 17 20 67 48 288
10/23/2000 C05 44 246 80 10 29 18 17 65 44 288
10/23/2000 COP 2 135 82 10 29 18 5 69 49 288
10/23/2000 COPE 65 152 96 9 28 17 19 67 51 288
10/23/2000 COPN 64 205 91 9 30 18 17 70 48 287
10/23/2000 COPS 59 140 92 9 30 20 17 71 44 240
10/23/2000 COPW 54 146 84 10 30 18 17 70 49 287
10/23/2000 COV 51 162 81 10 29 18 19 67 49 288
10/23/2000 DAIP 14 347 92 9 29 17 4 67 48 288
10/23/2000 DAIU 16 174 88 7 29 16 2 79 50 288
10/23/2000 GRA 1 338 90 10 28 18 6 67 49 288
10/23/2000 GRAE 48 192 87 9 30 18 17 67 47 288
10/23/2000 GRAN 58 280 92 10 30 18 18 67 48 288
10/23/2000 GRAS 49 285 91 10 29 18 19 67 47 288
10/23/2000 GRAW 39 199 74 10 29 18 19 66 46 288
10/23/2000 H43 1 112 70 10 31 18 2 67 46 288
10/23/2000 NIL 64 142 93 9 29 17 19 68 48 288
10/23/2000 ORE 0
10/23/2000 OTT 60 334 84 9 29 18 19 71 48 288
10/23/2000 SFE 3 112 68 9 29 18 4 67 39 288
10/23/2000 SHE 60 176 91 10 30 18 17 67 47 288
10/23/2000 SPE 62 144 98 11 25 17 24 66 50 96
10/23/2000 COD 9 334 53 10 29 18 26 73 49 288
DateSite bsp (Mn-1)Temperature (F)Relative Humidity (%)Count
   MinMaxAvg MinMaxAvg MinMaxAvg 
10/24/2000 BEL 17 135 56 10 31 19 14 66 41 288
10/24/2000 C05 0 156 57 10 32 20 6 64 38 288
10/24/2000 COP 14 156 53 10 32 20 59 59 59 288
10/24/2000 COPE 1 153 64 9 31 19 3 67 42 288
10/24/2000 COPN 0 218 62 10 33 20 1 69 40 288
10/24/2000 COPS 15 193 61 10 32 20 13 70 40 288
10/24/2000 COPW 4 202 58 10 33 20 1 69 41 288
10/24/2000 COV 14 208 56 10 31 19 3 66 41 288
10/24/2000 DAIP 15 158 62 9 31 19 13 67 41 288
10/24/2000 DAIU 14 148 62 8 31 18 12 77 42 288
10/24/2000 GRA 16 152 64 11 31 20 17 67 43 288
10/24/2000 GRAE 15 163 63 9 32 20 14 67 40 288
10/24/2000 GRAN 17 175 65 10 33 19 13 66 41 288
10/24/2000 GRAS 1 190 64 11 31 20 3 66 40 288
10/24/2000 GRAW 14 160 53 11 32 20 3 66 40 287
10/24/2000 H43 15 119 55 9 32 20 14 68 42 288
10/24/2000 NIL 7 154 65 9 37 19 3 67 42 288
10/24/2000 ORE 0
10/24/2000 OTT 8 134 58 10 32 19 3 70 42 288
10/24/2000 SFE 19 134 41 9 31 19 13 67 32 288
10/24/2000 SHE 17 181 62 10 32 20 12 67 39 288
10/24/2000 SPE 13 128 48 10 31 19 3 67 41 288
10/24/2000 COD 2 141 39 9 32 20 6 72 39 287
DateSite bsp (Mn-1)Temperature (F)Relative Humidity (%)Count
   MinMaxAvg MinMaxAvg MinMaxAvg 
10/25/2000 BEL 3 113 24 12 27 19 5 68 47 288
10/25/2000 C05 11 105 26 13 28 19 26 66 45 288
10/25/2000 COP 10 52 19 12 27 19 288
10/25/2000 COPE 12 64 26 11 26 18 28 69 49 288
10/25/2000 COPN 11 62 23 12 28 19 26 71 47 288
10/25/2000 COPS 1 85 22 12 28 20 8 72 46 288
10/25/2000 COPW 10 54 20 12 28 19 26 71 47 288
10/25/2000 COV 9 228 22 12 28 19 26 68 48 288
10/25/2000 DAIP 13 52 24 12 26 18 27 68 47 274
10/25/2000 DAIU 10 49 22 12 28 18 26 99 49 286
10/25/2000 GRA 13 80 31 12 27 19 30 68 50 288
10/25/2000 GRAE 13 143 29 12 27 19 5 68 46 288
10/25/2000 GRAN 1 93 25 13 28 19 5 68 46 288
10/25/2000 GRAS 13 134 31 12 27 19 28 67 47 288
10/25/2000 GRAW 8 81 19 13 28 20 26 67 46 288
10/25/2000 H43 9 52 18 11 27 19 27 66 48 288
10/25/2000 NIL 14 69 26 12 26 18 28 69 48 288
10/25/2000 ORE 0
10/25/2000 OTT 12 57 23 12 26 19 30 71 48 288
10/25/2000 SFE 16 290 40 11 27 18 25 66 46 288
10/25/2000 SHE 1 86 24 12 29 20 6 70 45 288
10/25/2000 SPE 10 42 19 11 27 19 27 68 48 288
10/25/2000 COD 4 39 11 12 27 19 30 73 42 288
DateSite bsp (Mn-1)Temperature (F)Relative Humidity (%)Count
   MinMaxAvg MinMaxAvg MinMaxAvg 
10/26/2000 BEL 5 37 17 13 21 17 40 68 63 288
10/26/2000 C05 4 47 16 13 22 17 36 67 59 288
10/26/2000 COP 5 47 16 12 22 17 39 71 65 288
10/26/2000 COPE 5 49 18 12 21 16 39 69 64 287
10/26/2000 COPN 4 60 16 13 22 17 37 72 65 288
10/26/2000 COPS 3 44 17 13 23 17 35 72 65 288
10/26/2000 COPW 4 43 15 13 22 17 35 72 65 288
10/26/2000 COV 5 42 16 13 21 17 38 68 63 287
10/26/2000 DAIP 4 56 17 12 21 16 37 69 62 288
10/26/2000 DAIU 3 62 19 11 21 15 40 91 76 288
10/26/2000 GRA 5 46 18 13 21 17 42 68 64 288
10/26/2000 GRAE 6 51 17 12 22 17 37 69 63 288
10/26/2000 GRAN 5 67 18 13 22 17 39 68 62 288
10/26/2000 GRAS 4 60 20 13 22 17 38 68 63 288
10/26/2000 GRAW 3 44 15 13 22 17 38 69 62 288
10/26/2000 H43 3 25 13 12 23 17 38 68 62 288
10/26/2000 NIL 6 54 20 12 20 16 41 70 64 288
10/26/2000 ORE 0
10/26/2000 OTT 6 60 19 12 22 17 37 72 65 288
10/26/2000 SFE 7 56 20 12 22 16 37 69 62 288
10/26/2000 SHE 3 94 20 13 22 17 35 70 62 288
10/26/2000 SPE 2 122 15 13 22 17 40 68 63 288
10/26/2000 COD 5 93 20 11 22 16 48 82 71 288
DateSite bsp (Mn-1)Temperature (F)Relative Humidity (%)Count
   MinMaxAvg MinMaxAvg MinMaxAvg 
10/27/2000 BEL 10 87 37 13 24 18 37 69 62 288
10/27/2000 C05 6 83 33 14 27 18 30 67 59 284
10/27/2000 COP 8 84 36 13 24 18 38 72 64 288
10/27/2000 COPE 9 127 40 13 22 17 41 70 64 288
10/27/2000 COPN 7 96 34 14 25 18 33 73 63 288
10/27/2000 COPS 8 84 35 14 25 18 33 73 63 288
10/27/2000 COPW 7 100 35 14 25 18 35 73 63 288
10/27/2000 COV 7 77 33 13 24 18 37 69 62 288
10/27/2000 DAIP 8 91 38 13 24 17 35 69 62 287
10/27/2000 DAIU 8 146 56 11 23 16 42 96 79 288
10/27/2000 GRA 8 126 35 15 23 18 46 69 64 288
10/27/2000 GRAE 9 96 35 14 24 18 37 69 62 288
10/27/2000 GRAN 8 82 37 14 24 18 38 69 62 288
10/27/2000 GRAS 8 90 37 14 23 18 40 69 63 287
10/27/2000 GRAW 6 60 28 14 26 18 35 69 60 288
10/27/2000 H43 8 70 32 13 24 18 37 69 61 288
10/27/2000 NIL 14 93 40 13 24 17 39 70 63 288
10/27/2000 ORE 0
10/27/2000 OTT 12 86 38 13 24 18 41 74 66 288
10/27/2000 SFE 12 107 45 14 23 17 36 69 62 288
10/27/2000 SHE 8 92 36 13 25 18 33 70 61 288
10/27/2000 SPE 8 90 32 13 22 17 43 69 64 288
10/27/2000 COD 9 96 40 13 24 17 49 90 74 288
DateSite bsp (Mn-1)Temperature (F)Relative Humidity (%)Count
   MinMaxAvg MinMaxAvg MinMaxAvg 
10/28/2000 BEL 11 181 52 13 24 18 33 68 57 288
10/28/2000 C05 8 116 44 11 24 18 31 66 54 288
10/28/2000 COP 9 211 51 11 25 18 32 71 58 288
10/28/2000 COPE 11 162 55 11 24 17 32 69 59 288
10/28/2000 COPN 9 158 50 11 25 18 31 73 58 288
10/28/2000 COPS 9 156 50 12 26 18 30 73 57 288
10/28/2000 COPW 8 152 49 11 26 18 31 73 57 288
10/28/2000 COV 8 143 48 11 24 17 33 69 58 288
10/28/2000 DAIP 10 180 71 11 24 17 30 69 56 208
10/28/2000 DAIU 9 249 80 9 24 16 33 94 68 288
10/28/2000 GRA 10 121 51 11 23 18 37 69 60 288
10/28/2000 GRAE 10 182 50 10 23 17 33 69 58 288
10/28/2000 GRAN 9 148 51 11 24 17 32 68 58 288
10/28/2000 GRAS 9 137 49 12 23 18 33 69 58 287
10/28/2000 GRAW 7 120 40 11 24 18 32 68 57 287
10/28/2000 H43 8 110 42 10 24 17 33 69 57 288
10/28/2000 NIL 12 159 55 11 23 17 33 70 59 288
10/28/2000 ORE 0
10/28/2000 OTT 11 115 49 11 23 17 34 73 61 288
10/28/2000 SFE 12 163 60 10 24 17 31 69 57 288
10/28/2000 SHE 8 182 53 12 25 18 30 70 56 288
10/28/2000 SPE 7 107 41 11 24 17 33 69 59 288
10/28/2000 COD 5 184 56 9 24 17 49 88 67 288
DateSite bsp (Mn-1)Temperature (F)Relative Humidity (%)Count
   MinMaxAvg MinMaxAvg MinMaxAvg 
10/29/2000 BEL 5 43 20 13 21 17 48 69 66 288
10/29/2000 C05 4 52 17 13 22 16 47 66 63 288
10/29/2000 COP 6 86 24 12 22 16 46 71 68 288
10/29/2000 COPE 6 100 25 12 20 16 52 70 68 288
10/29/2000 COPN 3 97 22 13 23 16 44 72 69 288
10/29/2000 COPS 4 82 22 13 24 17 41 73 69 288
10/29/2000 COPW 3 69 21 13 23 17 43 73 69 288
10/29/2000 COV 4 65 21 13 22 16 47 69 67 288
10/29/2000 DAIP 0
10/29/2000 DAIU 4 244 36 10 20 14 52 96 85 288
10/29/2000 GRA 4 47 18 14 21 17 53 69 67 288
10/29/2000 GRAE 4 41 19 13 22 16 50 69 67 288
10/29/2000 GRAN 4 54 20 14 22 17 46 69 66 288
10/29/2000 GRAS 13 49 26 17 17 17 65 68 67 80
10/29/2000 GRAW 3 72 16 13 22 16 45 68 66 288
10/29/2000 H43 4 47 17 13 22 16 46 69 66 288
10/29/2000 NIL 8 59 25 13 21 16 52 70 68 288
10/29/2000 ORE 0
10/29/2000 OTT 8 81 23 13 22 16 49 73 70 288
10/29/2000 SFE 9 59 25 14 21 16 45 69 66 288
10/29/2000 SHE 4 121 24 13 23 17 41 70 66 288
10/29/2000 SPE 3 84 15 13 21 16 51 69 66 288
10/29/2000 COD 6 78 24 12 22 15 54 90 80 288
DateSite bsp (Mn-1)Temperature (F)Relative Humidity (%)Count
   MinMaxAvg MinMaxAvg MinMaxAvg 
10/30/2000 BEL 19 118 57 10 22 15 37 69 63 288
10/30/2000 C05 17 126 55 10 22 15 42 67 60 288
10/30/2000 COP 3 141 63 9 21 14 44 72 65 288
10/30/2000 COPE 23 154 64 9 20 14 47 70 65 288
10/30/2000 COPN 18 152 59 10 23 15 37 73 64 288
10/30/2000 COPS 18 131 58 10 23 15 36 73 64 288
10/30/2000 COPW 17 135 56 10 24 15 36 73 64 288
10/30/2000 COV 17 144 56 9 21 14 44 70 63 288
10/30/2000 DAIP 0
10/30/2000 DAIU 20 326 124 7 20 12 47 96 80 288
10/30/2000 GRA 19 139 58 10 20 15 50 72 65 288
10/30/2000 GRAE 18 118 57 10 21 14 41 70 63 288
10/30/2000 GRAN 22 119 61 10 20 14 44 69 63 288
10/30/2000 GRAS 20 112 57 14 22 17 42 67 58 163
10/30/2000 GRAW 15 108 48 10 22 15 41 69 62 288
10/30/2000 H43 18 102 52 10 21 14 41 69 63 288
10/30/2000 NIL 21 137 60 9 20 14 44 70 65 287
10/30/2000 ORE 0
10/30/2000 OTT 19 112 57 10 19 14 51 74 68 288
10/30/2000 SFE 25 133 65 10 21 14 39 70 63 288
10/30/2000 SHE 18 167 61 10 23 15 35 70 62 288
10/30/2000 SPE 31 66 45 9 13 11 68 70 69 98
10/30/2000 COD 44 181 85 8 17 11 72 93 90 135
DateSite bsp (Mn-1)Temperature (F)Relative Humidity (%)Count
   MinMaxAvg MinMaxAvg MinMaxAvg 
10/31/2000 BEL 19 202 83 11 21 15 39 68 61 288
10/31/2000 C05 22 180 77 11 21 15 33 67 59 288
10/31/2000 COP 24 312 90 10 20 15 42 72 64 288
10/31/2000 COPE 26 210 92 10 19 14 44 69 64 288
10/31/2000 COPN 23 203 84 11 21 15 39 72 63 288
10/31/2000 COPS 23 206 85 11 21 16 38 73 63 288
10/31/2000 COPW 21 197 81 11 21 15 40 73 63 288
10/31/2000 COV 22 183 76 11 20 15 42 69 62 288
10/31/2000 DAIP 0
10/31/2000 DAIU 32 285 124 8 19 13 28 94 77 286
10/31/2000 GRA 22 176 76 12 19 15 50 69 65 288
10/31/2000 GRAE 25 182 79 11 21 15 39 69 62 288
10/31/2000 GRAN 26 182 86 11 20 15 41 69 63 288
10/31/2000 GRAS 23 181 83 11 20 15 43 69 62 288
10/31/2000 GRAW 17 144 66 11 22 16 39 69 61 288
10/31/2000 H43 22 129 71 10 20 15 40 69 62 288
10/31/2000 NIL 29 157 85 10 21 15 42 70 63 288
10/31/2000 ORE 0
10/31/2000 OTT 24 220 82 10 21 15 42 73 65 287
10/31/2000 SFE 37 172 90 11 19 15 41 69 62 287
10/31/2000 SHE 23 180 83 11 21 15 36 70 60 288
10/31/2000 SPE 18 170 75 10 19 15 43 69 61 217
10/31/2000 COD 0
DateSite bsp (Mn-1)Temperature (F)Relative Humidity (%)Count
   MinMaxAvg MinMaxAvg MinMaxAvg 
11/01/2000 BEL 58 213 126 8 22 15 34 68 60 278
11/01/2000 C05 59 235 119 8 24 15 30 66 57 288
11/01/2000 COP 53 252 135 7 23 15 32 72 61 288
11/01/2000 COPE 56 266 144 7 22 13 34 70 63 266
11/01/2000 COPN 62 141 106 7 25 14 29 73 60 173
11/01/2000 COPS 49 252 132 8 25 15 29 73 61 287
11/01/2000 COPW 48 261 129 8 25 15 30 73 61 288
11/01/2000 COV 47 263 121 7 23 14 32 70 60 288
11/01/2000 DAIP 0
11/01/2000 DAIU 52 382 205 4 22 13 34 96 74 288
11/01/2000 GRA 59 235 120 8 23 15 37 69 62 288
11/01/2000 GRAE 55 358 123 7 24 14 30 69 59 288
11/01/2000 GRAN 67 264 136 8 23 14 31 69 60 288
11/01/2000 GRAS 63 249 128 9 23 15 32 69 59 288
11/01/2000 GRAW 56 235 106 8 24 15 31 69 58 288
11/01/2000 H43 52 174 106 7 24 15 30 69 59 288
11/01/2000 NIL 57 222 131 6 23 14 33 70 61 288
11/01/2000 ORE 0
11/01/2000 OTT 54 447 125 7 24 14 32 74 62 288
11/01/2000 SFE 67 240 131 7 23 14 30 69 59 288
11/01/2000 SHE 50 243 133 8 24 15 28 70 59 288
11/01/2000 SPE 49 218 109 7 22 14 33 69 60 288
11/01/2000 COD 63 242 137 8 23 18 31 82 49 165
DateSite bsp (Mn-1)Temperature (F)Relative Humidity (%)Count
   MinMaxAvg MinMaxAvg MinMaxAvg 
11/02/2000 BEL 119 363 232 11 23 16 41 68 61 288
11/02/2000 C05 116 394 224 11 24 16 32 67 56 288
11/02/2000 COP 146 443 259 11 23 16 38 72 62 288
11/02/2000 COPE 224 361 263 12 23 16 37 69 59 107
11/02/2000 COPN 0
11/02/2000 COPS 142 448 252 11 24 16 34 73 62 288
11/02/2000 COPW 141 471 256 11 24 16 36 73 62 288
11/02/2000 COV 130 426 235 10 24 16 36 69 61 288
11/02/2000 DAIP 0
11/02/2000 DAIU 210 718 351 8 23 14 40 96 75 288
11/02/2000 GRA 126 397 233 11 23 16 42 69 62 288
11/02/2000 GRAE 129 434 237 11 24 16 37 69 60 287
11/02/2000 GRAN 148 479 267 11 23 16 38 69 61 288
11/02/2000 GRAS 126 441 246 12 23 16 38 69 60 287
11/02/2000 GRAW 115 346 198 11 24 16 36 68 59 288
11/02/2000 H43 124 372 222 11 24 16 35 69 60 288
11/02/2000 NIL 130 453 249 10 23 15 37 70 61 288
11/02/2000 ORE 0
11/02/2000 OTT 140 434 233 10 24 16 37 74 63 288
11/02/2000 SFE 147 439 262 11 23 16 36 69 59 288
11/02/2000 SHE 139 504 256 10 25 16 33 70 59 288
11/02/2000 SPE 120 312 206 10 22 15 39 69 61 288
11/02/2000 COD 127 415 238 12 22 17 37 60 54 288
DateSite bsp (Mn-1)Temperature (F)Relative Humidity (%)Count
   MinMaxAvg MinMaxAvg MinMaxAvg 
11/03/2000 BEL 232 448 334 9 24 16 38 68 60 288
11/03/2000 C05 207 393 289 9 29 18 16 66 47 288
11/03/2000 COP 221 536 359 9 25 16 33 71 61 288
11/03/2000 COPE 297 398 333 16 25 21 36 66 48 50
11/03/2000 COPN 0
11/03/2000 COPS 213 517 352 10 26 16 32 73 60 288
11/03/2000 COPW 214 513 346 10 26 16 32 73 61 288
11/03/2000 COV 204 447 329 9 24 16 34 69 60 288
11/03/2000 DAIP 0
11/03/2000 DAIU 264 1020 537 6 24 14 37 96 74 288
11/03/2000 GRA 204 458 315 9 24 16 42 69 61 288
11/03/2000 GRAE 201 441 319 8 25 16 33 69 59 288
11/03/2000 GRAN 239 478 359 9 25 15 34 68 60 288
11/03/2000 GRAS 215 440 335 10 24 16 34 69 59 288
11/03/2000 GRAW 166 431 277 10 26 16 32 68 58 288
11/03/2000 H43 220 389 300 8 25 16 32 69 59 288
11/03/2000 NIL 233 450 358 8 24 15 35 70 61 288
11/03/2000 ORE 0
11/03/2000 OTT 228 438 317 9 25 16 35 74 62 287
11/03/2000 SFE 247 658 348 8 24 15 33 70 58 287
11/03/2000 SHE 222 449 347 9 26 16 30 70 58 288
11/03/2000 SPE 199 358 287 8 23 15 37 69 60 288
11/03/2000 COD 212 426 330 10 24 16 33 62 53 288
DateSite bsp (Mn-1)Temperature (F)Relative Humidity (%)Count
   MinMaxAvg MinMaxAvg MinMaxAvg 
11/04/2000 BEL 120 587 379 10 26 16 30 68 58 288
11/04/2000 C05 91 471 309 9 32 19 11 66 39 288
11/04/2000 COP 107 871 401 9 27 16 26 71 59 288
11/04/2000 COPE 130 631 367 14 27 19 27 69 52 100
11/04/2000 COPN 0
11/04/2000 COPS 117 611 393 9 28 17 24 73 58 288
11/04/2000 COPW 105 633 382 10 28 17 25 72 58 288
11/04/2000 COV 115 549 369 9 26 16 27 69 57 288
11/04/2000 DAIP 0
11/04/2000 DAIU 117 1007 564 6 26 14 28 94 71 288
11/04/2000 GRA 107 527 352 9 26 16 30 69 59 288
11/04/2000 GRAE 106 551 362 8 28 16 25 69 57 288
11/04/2000 GRAN 124 589 406 9 27 16 26 68 58 288
11/04/2000 GRAS 112 694 380 9 27 17 26 68 57 288
11/04/2000 GRAW 95 463 312 9 27 17 25 68 56 288
11/04/2000 H43 100 525 341 8 27 16 25 69 56 288
11/04/2000 NIL 113 646 410 8 27 15 25 70 59 288
11/04/2000 ORE 0
11/04/2000 OTT 106 552 362 9 28 16 26 73 59 288
11/04/2000 SFE 116 590 400 8 27 16 25 69 56 288
11/04/2000 SHE 116 632 389 9 28 17 23 70 56 288
11/04/2000 SPE 100 571 330 9 26 16 26 68 58 288
11/04/2000 COD 122 544 375 9 27 16 25 62 51 288
DateSite bsp (Mn-1)Temperature (F)Relative Humidity (%)Count
   MinMaxAvg MinMaxAvg MinMaxAvg 
11/05/2000 BEL 143 602 309 9 23 15 43 67 62 288
11/05/2000 C05 120 462 236 10 27 18 21 65 46 288
11/05/2000 COP 134 668 326 9 24 16 42 70 63 288
11/05/2000 COPE 157 354 250 13 23 16 43 69 64 109
11/05/2000 COPN 0
11/05/2000 COPS 130 730 328 10 24 16 37 73 63 288
11/05/2000 COPW 129 666 314 9 25 16 40 72 64 288
11/05/2000 COV 126 575 298 9 23 15 41 69 62 288
11/05/2000 DAIP 0
11/05/2000 DAIU 142 1188 466 6 23 13 44 95 77 288
11/05/2000 GRA 129 595 270 10 23 16 47 68 64 288
11/05/2000 GRAE 124 633 282 9 24 15 39 69 62 288
11/05/2000 GRAN 142 636 316 9 23 15 42 68 62 288
11/05/2000 GRAS 134 626 294 10 23 16 42 68 62 288
11/05/2000 GRAW 105 473 237 9 25 16 37 67 60 288
11/05/2000 H43 124 606 267 9 24 15 39 69 61 288
11/05/2000 NIL 143 818 321 8 23 15 42 70 63 288
11/05/2000 ORE 0
11/05/2000 OTT 127 547 281 8 24 15 42 73 65 288
11/05/2000 SFE 145 646 318 9 22 15 40 69 61 288
11/05/2000 SHE 127 648 310 9 25 16 37 69 61 288
11/05/2000 SPE 120 532 266 8 22 15 45 69 63 288
11/05/2000 COD 140 583 297 10 23 16 41 61 56 288
DateSite bsp (Mn-1)Temperature (F)Relative Humidity (%)Count
   MinMaxAvg MinMaxAvg MinMaxAvg 
11/06/2000 BEL 31 310 176 9 23 15 43 68 61 287
11/06/2000 C05 40 230 133 14 27 19 18 39 29 288
11/06/2000 COP 27 344 203 11 23 15 44 71 63 288
11/06/2000 COPE 31 349 215 10 21 14 48 69 63 288
11/06/2000 COPN 0
11/06/2000 COPS 31 357 197 11 23 16 42 73 63 288
11/06/2000 COPW 26 362 192 11 23 16 43 73 63 288
11/06/2000 COV 31 318 186 10 22 15 43 69 62 287
11/06/2000 DAIP 0
11/06/2000 DAIU 30 785 297 7 21 13 47 96 75 288
11/06/2000 GRA 36 381 181 11 22 15 49 68 63 288
11/06/2000 GRAE 37 316 185 10 22 15 43 69 61 288
11/06/2000 GRAN 43 337 202 10 22 15 45 68 62 288
11/06/2000 GRAS 50 434 186 11 22 15 44 68 61 288
11/06/2000 GRAW 38 248 152 11 24 16 39 67 60 288
11/06/2000 H43 67 253 171 10 22 15 41 69 61 288
11/06/2000 NIL 80 1948 320 9 22 15 45 70 61 219
11/06/2000 ORE 0
11/06/2000 OTT 46 254 174 10 22 15 43 73 64 288
11/06/2000 SFE 77 322 205 10 21 15 42 69 61 288
11/06/2000 SHE 37 314 190 10 23 16 37 70 60 288
11/06/2000 SPE 22 275 152 10 21 15 44 69 61 231
11/06/2000 COD 31 278 187 12 21 16 44 60 55 288
DateSite bsp (Mn-1)Temperature (F)Relative Humidity (%)Count
   MinMaxAvg MinMaxAvg MinMaxAvg 
11/07/2000 BEL 22 212 107 6 21 13 37 67 60 288
11/07/2000 C05 15 164 76 11 25 17 15 34 26 288
11/07/2000 COP 22 206 104 7 21 13 37 70 61 288
11/07/2000 COPE 23 221 76 6 19 10 43 68 64 164
11/07/2000 COPN 44 354 145 10 22 16 35 70 54 182
11/07/2000 COPS 20 84 29 7 14 9 57 71 68 111
11/07/2000 COPW 20 199 101 7 21 13 36 71 61 288
11/07/2000 COV 18 466 103 6 21 13 35 67 59 288
11/07/2000 DAIP 0
11/07/2000 DAIU 22 268 116 5 20 11 38 87 68 288
11/07/2000 GRA 20 214 102 7 20 13 44 68 61 288
11/07/2000 GRAE 21 194 99 7 22 13 35 68 58 288
11/07/2000 GRAN 22 242 109 7 21 13 37 66 60 288
11/07/2000 GRAS 19 208 100 7 21 13 37 67 58 288
11/07/2000 GRAW 15 182 80 7 23 14 32 66 57 288
11/07/2000 H43 17 239 92 7 21 13 34 80 58 288
11/07/2000 NIL 0
11/07/2000 ORE 0
11/07/2000 OTT 24 234 101 6 21 12 39 71 61 288
11/07/2000 SFE 24 315 119 6 20 12 35 67 58 288
11/07/2000 SHE 20 267 105 6 23 13 32 68 58 288
11/07/2000 SPE 0
11/07/2000 COD 21 274 104 8 20 14 37 58 53 288
DateSite bsp (Mn-1)Temperature (F)Relative Humidity (%)Count
   MinMaxAvg MinMaxAvg MinMaxAvg 
11/08/2000 BEL 91 263 168 7 24 15 23 67 53 288
11/08/2000 C05 84 182 122 9 31 18 8 63 28 287
11/08/2000 COP 95 240 168 6 26 14 22 71 55 185
11/08/2000 COPE 0
11/08/2000 COPN 96 238 160 7 28 15 19 71 51 288
11/08/2000 COPS 0
11/08/2000 COPW 95 237 158 7 27 15 19 71 52 288
11/08/2000 COV 109 230 166 7 24 12 26 67 59 153
11/08/2000 DAIP 0
11/08/2000 DAIU 93 330 199 4 25 13 21 91 60 288
11/08/2000 GRA 101 248 145 6 25 15 27 67 53 288
11/08/2000 GRAE 99 238 148 5 26 15 21 68 51 288
11/08/2000 GRAN 110 231 164 6 26 14 23 67 52 287
11/08/2000 GRAS 104 219 156 7 25 15 22 67 50 288
11/08/2000 GRAW 84 206 129 6 25 15 22 67 49 287
11/08/2000 H43 274 308 299 6 7 7 81 83 82 6
11/08/2000 NIL 0
11/08/2000 ORE 0
11/08/2000 OTT 83 216 154 6 27 15 21 72 53 288
11/08/2000 SFE 210 229 220 7 8 8 67 69 68 13
11/08/2000 SHE 85 428 170 7 27 15 17 69 50 288
11/08/2000 SPE 0
11/08/2000 COD 137 208 171 7 22 11 32 59 55 143
DateSite bsp (Mn-1)Temperature (F)Relative Humidity (%)Count
   MinMaxAvg MinMaxAvg MinMaxAvg 
11/09/2000 BEL 22 160 38 6 20 13 29 67 52 232
11/09/2000 C05 15 90 30 11 24 17 12 46 22 288
11/09/2000 COP -7 258 49 -13 21 15 27 66 45 179
11/09/2000 COPE 0
11/09/2000 COPN 20 219 46 7 22 13 24 71 53 287
11/09/2000 COPS 0
11/09/2000 COPW 20 123 40 7 21 13 26 71 53 288
11/09/2000 COV 0
11/09/2000 DAIP 0
11/09/2000 DAIU 20 153 45 5 19 11 28 86 60 287
11/09/2000 GRA 19 246 43 8 20 13 31 67 55 288
11/09/2000 GRAE 19 140 39 8 21 13 25 67 52 288
11/09/2000 GRAN 22 134 42 8 20 12 26 66 53 288
11/09/2000 GRAS 21 214 44 8 20 13 26 67 52 288
11/09/2000 GRAW 16 114 33 7 21 13 26 66 51 288
11/09/2000 H43 0
11/09/2000 NIL 26 86 56 9 19 12 30 66 57 105
11/09/2000 ORE 0
11/09/2000 OTT 21 134 42 6 21 13 27 72 54 287
11/09/2000 SFE 26 159 60 9 19 14 26 65 44 143
11/09/2000 SHE 20 147 43 7 22 14 24 68 51 288
11/09/2000 SPE 53 205 67 9 10 10 58 65 63 50
11/09/2000 COD 0
DateSite bsp (Mn-1)Temperature (F)Relative Humidity (%)Count
   MinMaxAvg MinMaxAvg MinMaxAvg 
11/10/2000 BEL 0
11/10/2000 C05 5 71 35 10 23 16 12 61 24 288
11/10/2000 COP 7 97 48 7 20 13 26 70 55 288
11/10/2000 COPE 9 94 46 9 19 13 28 67 51 193
11/10/2000 COPN 6 173 48 8 22 13 23 71 54 288
11/10/2000 COPS 6 71 35 10 21 15 24 67 47 138
11/10/2000 COPW 5 81 46 8 20 13 24 71 54 288
11/10/2000 COV 5 75 34 9 20 14 26 65 47 186
11/10/2000 DAIP 0
11/10/2000 DAIU 4 127 52 5 21 12 25 91 61 288
11/10/2000 GRA 6 175 43 8 19 13 30 67 56 288
11/10/2000 GRAE 6 172 45 8 20 13 26 67 54 288
11/10/2000 GRAN 8 109 53 8 20 12 25 67 54 288
11/10/2000 GRAS 7 99 48 9 20 13 26 67 54 288
11/10/2000 GRAW 4 117 38 8 20 13 25 67 53 288
11/10/2000 H43 3 110 44 8 20 13 26 67 53 281
11/10/2000 NIL 9 91 50 7 20 12 25 69 56 288
11/10/2000 ORE 0
11/10/2000 OTT 6 238 50 7 20 13 26 72 55 288
11/10/2000 SFE 11 128 56 8 20 12 23 68 52 288
11/10/2000 SHE 5 89 46 8 21 14 24 69 52 288
11/10/2000 SPE 4 112 41 7 19 12 27 68 55 288
11/10/2000 COD 7 79 40 11 19 15 26 55 44 189
DateSite bsp (Mn-1)Temperature (F)Relative Humidity (%)Count
   MinMaxAvg MinMaxAvg MinMaxAvg 
11/11/2000 BEL 0
11/11/2000 C05 24 136 56 6 21 12 17 73 41 287
11/11/2000 COP 38 208 70 7 19 11 31 69 58 288
11/11/2000 COPE 40 228 78 6 17 9 32 68 59 288
11/11/2000 COPN 37 337 70 7 20 11 30 71 58 288
11/11/2000 COPS 38 206 73 7 19 12 29 72 57 288
11/11/2000 COPW 36 240 71 6 18 11 31 70 58 288
11/11/2000 COV 34 212 64 6 18 11 30 67 56 288
11/11/2000 DAIP 0
11/11/2000 DAIU 43 178 75 4 17 9 32 87 66 288
11/11/2000 GRA 33 148 61 6 18 11 36 67 58 285
11/11/2000 GRAE 35 276 65 5 19 11 30 67 56 288
11/11/2000 GRAN 38 349 78 6 18 11 30 66 57 288
11/11/2000 GRAS 34 152 69 6 18 11 31 67 56 288
11/11/2000 GRAW 27 155 53 6 19 11 29 66 55 288
11/11/2000 H43 32 120 61 6 19 11 29 67 56 288
11/11/2000 NIL 42 164 72 6 18 10 30 69 58 288
11/11/2000 ORE 0
11/11/2000 OTT 38 194 70 5 19 10 29 71 58 288
11/11/2000 SFE 45 180 84 5 18 10 30 67 55 288
11/11/2000 SHE 36 226 69 6 20 11 26 68 55 288
11/11/2000 SPE 28 138 62 5 17 10 32 67 57 288
11/11/2000 COD 34 128 64 8 18 11 31 57 50 288
DateSite bsp (Mn-1)Temperature (F)Relative Humidity (%)Count
   MinMaxAvg MinMaxAvg MinMaxAvg 
11/12/2000 BEL 100 315 202 4 5 5 64 66 66 31
11/12/2000 C05 33 178 100 0 20 9 23 87 56 288
11/12/2000 COP 40 184 103 2 19 10 25 70 51 220
11/12/2000 COPE 43 271 130 1 18 8 26 69 56 288
11/12/2000 COPN 39 303 115 2 21 10 23 75 53 254
11/12/2000 COPS 39 299 121 3 20 11 23 72 53 254
11/12/2000 COPW 39 337 118 2 19 10 24 71 53 254
11/12/2000 COV 35 256 112 2 19 9 24 67 53 288
11/12/2000 DAIP 0
11/12/2000 DAIU 40 391 145 0 18 8 26 91 63 288
11/12/2000 GRA 37 202 99 2 19 9 28 67 55 288
11/12/2000 GRAE 37 204 101 1 20 9 23 67 52 288
11/12/2000 GRAN 46 251 114 2 19 9 24 66 54 288
11/12/2000 GRAS 37 333 106 2 19 9 24 68 52 288
11/12/2000 GRAW 29 162 86 2 20 10 23 67 51 288
11/12/2000 H43 35 147 89 1 20 9 22 67 52 288
11/12/2000 NIL 44 221 117 2 18 9 26 69 54 285
11/12/2000 ORE 0
11/12/2000 OTT 39 220 104 2 20 9 24 72 55 287
11/12/2000 SFE 43 182 110 1 19 9 23 68 51 288
11/12/2000 SHE 36 246 114 2 21 10 21 69 51 254
11/12/2000 SPE 34 253 102 2 18 8 26 68 54 288
11/12/2000 COD 40 231 108 2 19 10 25 58 47 288
DateSite bsp (Mn-1)Temperature (F)Relative Humidity (%)Count
   MinMaxAvg MinMaxAvg MinMaxAvg 
11/13/2000 BEL 24 292 110 2 19 9 23 67 51 288
11/13/2000 C05 18 178 88 -1 21 10 17 92 53 288
11/13/2000 COP 2 249 102 1 21 10 11 70 50 287
11/13/2000 COPE 29 247 115 0 20 8 19 69 52 288
11/13/2000 COPN 32 238 107 2 22 10 17 72 50 288
11/13/2000 COPS 27 313 104 2 21 10 17 73 50 288
11/13/2000 COPW 21 257 102 1 22 10 17 71 50 288
11/13/2000 COV 25 259 96 1 20 9 19 67 50 288
11/13/2000 DAIP 0
11/13/2000 DAIU 25 392 136 -1 20 8 21 94 59 288
11/13/2000 GRA 26 415 94 0 20 9 26 68 52 288
11/13/2000 GRAE 23 176 94 0 21 9 18 68 48 288
11/13/2000 GRAN 24 198 105 1 21 9 19 67 50 288
11/13/2000 GRAS 21 211 94 1 20 9 19 69 49 288
11/13/2000 GRAW 17 151 77 2 21 10 19 67 48 288
11/13/2000 H43 16 183 77 0 21 9 18 68 50 288
11/13/2000 NIL 25 288 118 0 19 8 21 70 52 288
11/13/2000 ORE 0
11/13/2000 OTT 20 189 88 1 21 10 20 72 51 288
11/13/2000 SFE 22 517 102 0 20 9 18 69 48 288
11/13/2000 SHE 22 223 97 2 21 10 16 69 48 288
11/13/2000 SPE 16 181 87 0 19 9 21 68 51 288
11/13/2000 COD 28 187 101 2 20 10 19 59 45 288
DateSite bsp (Mn-1)Temperature (F)Relative Humidity (%)Count
   MinMaxAvg MinMaxAvg MinMaxAvg 
11/14/2000 BEL 22 221 82 5 18 10 33 67 58 288
11/14/2000 C05 20 216 84 2 18 10 30 93 63 288
11/14/2000 COP 19 231 85 4 18 10 32 71 59 288
11/14/2000 COPE 22 248 95 4 17 9 32 70 59 288
11/14/2000 COPN 18 231 84 5 19 10 29 73 59 288
11/14/2000 COPS 19 228 86 5 19 11 28 73 58 288
11/14/2000 COPW 18 233 84 5 18 10 31 72 58 288
11/14/2000 COV -18 304 73 4 18 10 30 86 57 248
11/14/2000 DAIP 0
11/14/2000 DAIU 21 480 117 2 17 8 33 96 70 288
11/14/2000 GRA 19 196 78 3 18 10 35 68 59 288
11/14/2000 GRAE 19 214 82 3 19 10 30 68 57 288
11/14/2000 GRAN 24 399 94 4 18 10 31 67 58 288
11/14/2000 GRAS 26 221 89 4 17 10 31 69 57 288
11/14/2000 GRAW 17 171 68 4 20 11 28 67 56 288
11/14/2000 H43 21 206 80 5 18 10 29 67 56 288
11/14/2000 NIL 21 233 90 4 17 9 32 70 59 288
11/14/2000 ORE 0
11/14/2000 OTT 20 211 82 4 19 10 32 72 59 288
11/14/2000 SFE 28 270 103 4 17 10 30 69 56 288
11/14/2000 SHE 18 460 85 5 19 11 27 69 56 288
11/14/2000 SPE 18 182 68 4 17 9 33 68 59 288
11/14/2000 COD 21 220 86 5 17 10 31 60 51 288
DateSite bsp (Mn-1)Temperature (F)Relative Humidity (%)Count
   MinMaxAvg MinMaxAvg MinMaxAvg 
11/15/2000 BEL 60 395 153 2 17 8 39 67 61 288
11/15/2000 C05 52 210 112 1 15 4 53 92 81 143
11/15/2000 COP 66 66 66 6 6 6 69 69 69 1
11/15/2000 COPE 64 259 149 2 16 7 39 69 63 288
11/15/2000 COPN 1 282 105 3 19 9 5 73 61 192
11/15/2000 COPS 60 245 136 3 18 9 33 73 62 288
11/15/2000 COPW 1 186 102 3 17 9 5 72 60 208
11/15/2000 COV 54 236 126 3 17 8 36 68 60 288
11/15/2000 DAIP 0
11/15/2000 DAIU 66 911 198 0 16 6 38 96 74 288
11/15/2000 GRA 51 287 125 2 16 8 42 68 62 288
11/15/2000 GRAE 54 213 121 1 18 8 35 68 60 288
11/15/2000 GRAN 2 314 119 3 17 9 8 67 58 209
11/15/2000 GRAS 51 290 128 3 17 8 37 69 60 288
11/15/2000 GRAW 42 280 108 2 18 9 33 67 59 288
11/15/2000 H43 53 160 91 2 13 4 56 68 66 132
11/15/2000 NIL 65 627 148 1 16 7 37 70 62 288
11/15/2000 ORE 0
11/15/2000 OTT 59 796 136 2 18 8 37 73 63 288
11/15/2000 SFE 62 623 144 1 16 7 37 69 60 288
11/15/2000 SHE 0 178 103 2 22 8 3 70 61 178
11/15/2000 SPE 48 302 124 1 15 7 40 69 62 288
11/15/2000 COD 2 169 100 3 16 9 7 59 53 195
DateSite bsp (Mn-1)Temperature (F)Relative Humidity (%)Count
   MinMaxAvg MinMaxAvg MinMaxAvg 
11/16/2000 BEL -7 274 150 -13 18 9 33 66 56 176
11/16/2000 C05 -7 80 41 -13 25 20 2 35 23 10
11/16/2000 COP 0
11/16/2000 COPE 3 214 150 3 12 5 5 68 64 133
11/16/2000 COPN 0
11/16/2000 COPS -7 197 143 -13 13 6 7 71 68 110
11/16/2000 COPW 0
11/16/2000 COV 103 248 156 4 19 10 30 67 55 288
11/16/2000 DAIP 0
11/16/2000 DAIU 112 287 171 1 17 7 33 88 69 164
11/16/2000 GRA 1 157 120 3 21 9 5 68 57 166
11/16/2000 GRAE 104 553 156 3 19 10 29 67 55 288
11/16/2000 GRAN 0
11/16/2000 GRAS 1 212 129 4 18 9 4 68 54 180
11/16/2000 GRAW 3 182 106 4 22 8 2 67 60 140
11/16/2000 H43 0
11/16/2000 NIL -17 220 131 3 24 10 1 69 54 197
11/16/2000 ORE 0
11/16/2000 OTT 3 185 126 4 25 11 3 71 53 207
11/16/2000 SFE 112 252 145 2 17 9 30 68 52 190
11/16/2000 SHE 0
11/16/2000 SPE 0 212 124 4 24 9 2 67 55 183
11/16/2000 COD 0